createdAt,value
2018-09-04T00:00:34.852Z,1012.45
2018-09-04T00:01:34.848Z,1012.42
2018-09-04T00:02:34.848Z,1012.43
2018-09-04T00:03:34.847Z,1012.42
2018-09-04T00:04:34.848Z,1012.41
2018-09-04T00:05:34.846Z,1012.38
2018-09-04T00:06:34.850Z,1012.38
2018-09-04T00:07:34.850Z,1012.36
2018-09-04T00:08:34.853Z,1012.32
2018-09-04T00:09:34.858Z,1012.29
2018-09-04T00:10:34.850Z,1012.30
2018-09-04T00:11:34.853Z,1012.27
2018-09-04T00:12:34.851Z,1012.29
2018-09-04T00:13:34.853Z,1012.24
2018-09-04T00:14:34.853Z,1012.23
2018-09-04T00:15:34.855Z,1012.22
2018-09-04T00:16:34.853Z,1012.22
2018-09-04T00:17:34.859Z,1012.20
2018-09-04T00:18:34.851Z,1012.22
2018-09-04T00:19:34.851Z,1012.23
2018-09-04T00:20:34.853Z,1012.24
2018-09-04T00:21:34.853Z,1012.22
2018-09-04T00:22:34.852Z,1012.22
2018-09-04T00:23:34.858Z,1012.19
2018-09-04T00:24:34.857Z,1012.19
2018-09-04T00:25:34.856Z,1012.19
2018-09-04T00:26:34.852Z,1012.18
2018-09-04T00:27:34.855Z,1012.19
2018-09-04T00:28:34.859Z,1012.18
2018-09-04T00:29:34.857Z,1012.16
2018-09-04T00:30:34.859Z,1012.17
2018-09-04T00:31:34.855Z,1012.14
2018-09-04T00:32:34.859Z,1012.13
2018-09-04T00:33:34.862Z,1012.14
2018-09-04T00:34:34.926Z,1012.14
2018-09-04T00:35:34.858Z,1012.14
2018-09-04T00:36:34.860Z,1012.12
2018-09-04T00:37:34.859Z,1012.12
2018-09-04T00:38:34.859Z,1012.09
2018-09-04T00:39:34.856Z,1012.10
2018-09-04T00:40:34.859Z,1012.10
2018-09-04T00:41:34.858Z,1012.11
2018-09-04T00:42:34.862Z,1012.11
2018-09-04T00:43:34.859Z,1012.12
2018-09-04T00:44:34.859Z,1012.09
2018-09-04T00:45:34.858Z,1012.08
2018-09-04T00:46:34.857Z,1012.09
2018-09-04T00:47:34.859Z,1012.11
2018-09-04T00:48:34.858Z,1012.10
2018-09-04T00:49:34.865Z,1012.08
2018-09-04T00:50:34.860Z,1012.11
2018-09-04T00:51:34.855Z,1012.10
2018-09-04T00:52:34.859Z,1012.12
2018-09-04T00:53:34.860Z,1012.11
2018-09-04T00:54:34.855Z,1012.14
2018-09-04T00:55:34.863Z,1012.10
2018-09-04T00:56:34.860Z,1012.12
2018-09-04T00:57:34.864Z,1012.13
2018-09-04T00:58:34.860Z,1012.11
2018-09-04T00:59:34.862Z,1012.15
2018-09-04T01:00:34.864Z,1012.15
2018-09-04T01:01:34.864Z,1012.16
2018-09-04T01:02:34.860Z,1012.17
2018-09-04T01:03:34.862Z,1012.17
2018-09-04T01:04:34.865Z,1012.15
2018-09-04T01:05:34.864Z,1012.19
2018-09-04T01:06:34.867Z,1012.14
2018-09-04T01:07:34.866Z,1012.14
2018-09-04T01:08:34.861Z,1012.16
2018-09-04T01:09:34.861Z,1012.18
2018-09-04T01:10:34.863Z,1012.16
2018-09-04T01:11:34.860Z,1012.13
2018-09-04T01:12:34.857Z,1012.15
2018-09-04T01:13:34.860Z,1012.20
2018-09-04T01:14:34.863Z,1012.13
2018-09-04T01:15:34.866Z,1012.17
2018-09-04T01:16:34.863Z,1012.18
2018-09-04T01:17:34.866Z,1012.17
2018-09-04T01:18:34.867Z,1012.22
2018-09-04T01:19:34.864Z,1012.23
2018-09-04T01:20:34.861Z,1012.24
2018-09-04T01:21:34.859Z,1012.24
2018-09-04T01:22:34.858Z,1012.24
2018-09-04T01:23:34.860Z,1012.22
2018-09-04T01:24:34.862Z,1012.19
2018-09-04T01:25:34.907Z,1012.21
2018-09-04T01:26:34.866Z,1012.22
2018-09-04T01:27:34.860Z,1012.20
2018-09-04T01:28:34.860Z,1012.20
2018-09-04T01:29:34.859Z,1012.21
2018-09-04T01:30:34.861Z,1012.20
2018-09-04T01:31:34.858Z,1012.20
2018-09-04T01:32:34.856Z,1012.19
2018-09-04T01:33:34.855Z,1012.20
2018-09-04T01:34:34.859Z,1012.18
2018-09-04T01:35:34.853Z,1012.15
2018-09-04T01:36:34.854Z,1012.19
2018-09-04T01:37:34.859Z,1012.16
2018-09-04T01:38:34.860Z,1012.17
2018-09-04T01:39:34.860Z,1012.21
2018-09-04T01:40:34.858Z,1012.23
2018-09-04T01:41:34.860Z,1012.22
2018-09-04T01:42:34.855Z,1012.21
2018-09-04T01:43:34.855Z,1012.22
2018-09-04T01:44:34.856Z,1012.22
2018-09-04T01:45:34.853Z,1012.19
2018-09-04T01:46:34.854Z,1012.17
2018-09-04T01:47:34.855Z,1012.20
2018-09-04T01:48:34.859Z,1012.21
2018-09-04T01:49:34.858Z,1012.20
2018-09-04T01:50:34.853Z,1012.21
2018-09-04T01:51:34.851Z,1012.22
2018-09-04T01:52:34.859Z,1012.26
2018-09-04T01:53:34.849Z,1012.22
2018-09-04T01:54:34.849Z,1012.23
2018-09-04T01:55:34.852Z,1012.21
2018-09-04T01:56:34.849Z,1012.26
2018-09-04T01:57:34.850Z,1012.21
2018-09-04T01:58:34.849Z,1012.22
2018-09-04T01:59:34.853Z,1012.21
2018-09-04T02:00:34.847Z,1012.22
2018-09-04T02:01:34.844Z,1012.19
2018-09-04T02:02:34.854Z,1012.25
2018-09-04T02:03:34.851Z,1012.24
2018-09-04T02:04:34.844Z,1012.23
2018-09-04T02:05:34.850Z,1012.23
2018-09-04T02:06:34.844Z,1012.20
2018-09-04T02:07:34.843Z,1012.20
2018-09-04T02:08:34.844Z,1012.16
2018-09-04T02:09:34.857Z,1012.18
2018-09-04T02:10:34.846Z,1012.18
2018-09-04T02:11:34.844Z,1012.17
2018-09-04T02:12:34.844Z,1012.20
2018-09-04T02:13:34.847Z,1012.17
2018-09-04T02:14:34.850Z,1012.18
2018-09-04T02:15:34.840Z,1012.16
2018-09-04T02:16:34.844Z,1012.17
2018-09-04T02:17:34.840Z,1012.18
2018-09-04T02:18:34.847Z,1012.15
2018-09-04T02:19:34.837Z,1012.18
2018-09-04T02:20:34.838Z,1012.12
2018-09-04T02:21:34.839Z,1012.13
2018-09-04T02:22:34.838Z,1012.14
2018-09-04T02:23:34.834Z,1012.11
2018-09-04T02:24:34.842Z,1012.14
2018-09-04T02:25:34.832Z,1012.14
2018-09-04T02:26:34.837Z,1012.15
2018-09-04T02:27:34.830Z,1012.15
2018-09-04T02:28:34.840Z,1012.13
2018-09-04T02:29:34.840Z,1012.12
2018-09-04T02:30:34.837Z,1012.12
2018-09-04T02:31:34.833Z,1012.12
2018-09-04T02:32:34.841Z,1012.11
2018-09-04T02:33:34.864Z,1012.14
2018-09-04T02:34:34.829Z,1012.12
2018-09-04T02:35:34.833Z,1012.11
2018-09-04T02:36:34.831Z,1012.10
2018-09-04T02:37:34.830Z,1012.08
2018-09-04T02:38:34.841Z,1012.10
2018-09-04T02:39:34.829Z,1012.12
2018-09-04T02:40:34.827Z,1012.11
2018-09-04T02:41:34.826Z,1012.10
2018-09-04T02:42:34.823Z,1012.15
2018-09-04T02:43:34.826Z,1012.15
2018-09-04T02:44:34.826Z,1012.12
2018-09-04T02:45:34.821Z,1012.09
2018-09-04T02:46:34.829Z,1012.09
2018-09-04T02:47:34.820Z,1012.12
2018-09-04T02:48:34.820Z,1012.08
2018-09-04T02:49:34.824Z,1012.10
2018-09-04T02:50:34.822Z,1012.08
2018-09-04T02:51:34.821Z,1012.07
2018-09-04T02:52:34.821Z,1012.09
2018-09-04T02:53:34.814Z,1012.05
2018-09-04T02:54:34.820Z,1012.13
2018-09-04T02:55:34.874Z,1012.13
2018-09-04T02:56:34.818Z,1012.14
2018-09-04T02:57:34.821Z,1012.12
2018-09-04T02:58:34.821Z,1012.15
2018-09-04T02:59:34.811Z,1012.15
2018-09-04T03:00:34.819Z,1012.16
2018-09-04T03:01:34.814Z,1012.19
2018-09-04T03:02:34.811Z,1012.17
2018-09-04T03:03:34.811Z,1012.19
2018-09-04T03:04:34.811Z,1012.14
2018-09-04T03:05:34.811Z,1012.17
2018-09-04T03:06:34.812Z,1012.15
2018-09-04T03:07:34.806Z,1012.13
2018-09-04T03:08:34.817Z,1012.19
2018-09-04T03:09:34.806Z,1012.16
2018-09-04T03:10:34.809Z,1012.13
2018-09-04T03:11:34.803Z,1012.19
2018-09-04T03:12:34.804Z,1012.14
2018-09-04T03:13:34.885Z,1012.18
2018-09-04T03:14:34.800Z,1012.18
2018-09-04T03:15:34.800Z,1012.17
2018-09-04T03:16:34.802Z,1012.15
2018-09-04T03:17:34.799Z,1012.13
2018-09-04T03:18:34.798Z,1012.15
2018-09-04T03:19:34.808Z,1012.15
2018-09-04T03:20:34.807Z,1012.18
2018-09-04T03:21:34.795Z,1012.15
2018-09-04T03:22:34.795Z,1012.09
2018-09-04T03:23:34.817Z,1012.13
2018-09-04T03:24:34.794Z,1012.12
2018-09-04T03:25:34.796Z,1012.12
2018-09-04T03:26:34.792Z,1012.12
2018-09-04T03:27:34.796Z,1012.15
2018-09-04T03:28:34.792Z,1012.16
2018-09-04T03:29:34.787Z,1012.12
2018-09-04T03:30:34.788Z,1012.15
2018-09-04T03:31:34.786Z,1012.14
2018-09-04T03:32:34.786Z,1012.15
2018-09-04T03:33:34.784Z,1012.13
2018-09-04T03:34:34.787Z,1012.17
2018-09-04T03:35:34.791Z,1012.15
2018-09-04T03:36:34.783Z,1012.18
2018-09-04T03:37:34.780Z,1012.19
2018-09-04T03:38:34.780Z,1012.18
2018-09-04T03:39:34.787Z,1012.20
2018-09-04T03:40:34.781Z,1012.18
2018-09-04T03:41:34.778Z,1012.18
2018-09-04T03:42:34.780Z,1012.22
2018-09-04T03:43:34.775Z,1012.22
2018-09-04T03:44:34.783Z,1012.20
2018-09-04T03:45:34.778Z,1012.20
2018-09-04T03:46:34.772Z,1012.21
2018-09-04T03:47:34.771Z,1012.19
2018-09-04T03:48:34.771Z,1012.21
2018-09-04T03:49:34.774Z,1012.22
2018-09-04T03:50:34.773Z,1012.22
2018-09-04T03:51:34.779Z,1012.23
2018-09-04T03:52:34.770Z,1012.21
2018-09-04T03:53:34.768Z,1012.22
2018-09-04T03:54:34.772Z,1012.25
2018-09-04T03:55:34.765Z,1012.20
2018-09-04T03:56:34.763Z,1012.21
2018-09-04T03:57:34.764Z,1012.24
2018-09-04T03:58:34.764Z,1012.20
2018-09-04T03:59:34.763Z,1012.23
2018-09-04T04:00:34.763Z,1012.20
2018-09-04T04:01:34.875Z,1012.23
2018-09-04T04:02:34.760Z,1012.23
2018-09-04T04:03:34.766Z,1012.23
2018-09-04T04:04:34.768Z,1012.25
2018-09-04T04:05:34.755Z,1012.24
2018-09-04T04:06:34.756Z,1012.24
2018-09-04T04:07:34.760Z,1012.21
2018-09-04T04:08:34.767Z,1012.23
2018-09-04T04:09:34.756Z,1012.20
2018-09-04T04:10:34.752Z,1012.26
2018-09-04T04:11:34.753Z,1012.22
2018-09-04T04:12:34.753Z,1012.26
2018-09-04T04:13:34.750Z,1012.26
2018-09-04T04:14:34.750Z,1012.32
2018-09-04T04:15:34.746Z,1012.31
2018-09-04T04:16:34.748Z,1012.29
2018-09-04T04:17:34.748Z,1012.28
2018-09-04T04:18:34.749Z,1012.29
2018-09-04T04:19:34.748Z,1012.32
2018-09-04T04:20:34.748Z,1012.33
2018-09-04T04:21:34.745Z,1012.33
2018-09-04T04:22:34.744Z,1012.34
2018-09-04T04:23:34.740Z,1012.33
2018-09-04T04:24:34.740Z,1012.35
2018-09-04T04:25:34.742Z,1012.36
2018-09-04T04:26:34.740Z,1012.33
2018-09-04T04:27:34.747Z,1012.31
2018-09-04T04:28:34.743Z,1012.34
2018-09-04T04:29:34.751Z,1012.30
2018-09-04T04:30:34.740Z,1012.30
2018-09-04T04:31:34.737Z,1012.29
2018-09-04T04:32:34.735Z,1012.29
2018-09-04T04:33:34.736Z,1012.29
2018-09-04T04:34:34.738Z,1012.28
2018-09-04T04:35:34.738Z,1012.25
2018-09-04T04:36:34.735Z,1012.28
2018-09-04T04:37:34.728Z,1012.27
2018-09-04T04:38:34.730Z,1012.28
2018-09-04T04:39:34.735Z,1012.28
2018-09-04T04:40:34.729Z,1012.32
2018-09-04T04:41:34.730Z,1012.29
2018-09-04T04:42:34.724Z,1012.32
2018-09-04T04:43:34.724Z,1012.36
2018-09-04T04:44:34.725Z,1012.32
2018-09-04T04:45:34.722Z,1012.32
2018-09-04T04:46:34.723Z,1012.32
2018-09-04T04:47:34.721Z,1012.36
2018-09-04T04:48:34.721Z,1012.36
2018-09-04T04:49:34.717Z,1012.38
2018-09-04T04:50:34.716Z,1012.41
2018-09-04T04:51:34.716Z,1012.43
2018-09-04T04:52:34.717Z,1012.43
2018-09-04T04:53:34.722Z,1012.41
2018-09-04T04:54:34.714Z,1012.44
2018-09-04T04:55:34.714Z,1012.45
2018-09-04T04:56:34.717Z,1012.45
2018-09-04T04:57:34.712Z,1012.43
2018-09-04T04:58:34.723Z,1012.41
2018-09-04T04:59:34.711Z,1012.42
2018-09-04T05:00:34.709Z,1012.44
2018-09-04T05:01:34.708Z,1012.42
2018-09-04T05:02:34.713Z,1012.42
2018-09-04T05:03:34.701Z,1012.41
2018-09-04T05:04:34.708Z,1012.41
2018-09-04T05:05:34.704Z,1012.39
2018-09-04T05:06:34.708Z,1012.45
2018-09-04T05:07:34.702Z,1012.44
2018-09-04T05:08:34.702Z,1012.42
2018-09-04T05:09:34.702Z,1012.42
2018-09-04T05:10:34.700Z,1012.46
2018-09-04T05:11:34.780Z,1012.46
2018-09-04T05:12:34.694Z,1012.46
2018-09-04T05:13:34.697Z,1012.46
2018-09-04T05:14:34.690Z,1012.46
2018-09-04T05:15:34.698Z,1012.46
2018-09-04T05:16:34.696Z,1012.49
2018-09-04T05:17:34.692Z,1012.51
2018-09-04T05:18:34.689Z,1012.52
2018-09-04T05:19:34.689Z,1012.51
2018-09-04T05:20:34.692Z,1012.51
2018-09-04T05:21:34.685Z,1012.57
2018-09-04T05:22:34.743Z,1012.54
2018-09-04T05:23:34.688Z,1012.59
2018-09-04T05:24:34.687Z,1012.61
2018-09-04T05:25:34.685Z,1012.59
2018-09-04T05:26:34.684Z,1012.60
2018-09-04T05:27:34.684Z,1012.61
2018-09-04T05:28:34.682Z,1012.59
2018-09-04T05:29:34.680Z,1012.61
2018-09-04T05:30:34.685Z,1012.62
2018-09-04T05:31:34.680Z,1012.61
2018-09-04T05:32:34.680Z,1012.60
2018-09-04T05:33:34.676Z,1012.63
2018-09-04T05:34:34.679Z,1012.64
2018-09-04T05:35:34.678Z,1012.60
2018-09-04T05:36:34.702Z,1012.62
2018-09-04T05:37:34.677Z,1012.61
2018-09-04T05:38:34.676Z,1012.64
2018-09-04T05:39:34.678Z,1012.64
2018-09-04T05:40:34.676Z,1012.61
2018-09-04T05:41:34.680Z,1012.61
2018-09-04T05:42:34.680Z,1012.61
2018-09-04T05:43:34.676Z,1012.57
2018-09-04T05:44:34.678Z,1012.60
2018-09-04T05:45:34.678Z,1012.60
2018-09-04T05:46:34.687Z,1012.60
2018-09-04T05:47:34.680Z,1012.62
2018-09-04T05:48:34.680Z,1012.69
2018-09-04T05:49:34.676Z,1012.68
2018-09-04T05:50:34.676Z,1012.67
2018-09-04T05:51:34.680Z,1012.71
2018-09-04T05:52:34.677Z,1012.68
2018-09-04T05:53:34.674Z,1012.69
2018-09-04T05:54:34.680Z,1012.68
2018-09-04T05:55:34.681Z,1012.70
2018-09-04T05:56:34.676Z,1012.72
2018-09-04T05:57:34.677Z,1012.71
2018-09-04T05:58:34.678Z,1012.73
2018-09-04T05:59:34.679Z,1012.71
2018-09-04T06:00:34.681Z,1012.69
2018-09-04T06:01:34.674Z,1012.71
2018-09-04T06:02:34.677Z,1012.70
2018-09-04T06:03:34.675Z,1012.72
2018-09-04T06:04:34.676Z,1012.69
2018-09-04T06:05:34.677Z,1012.64
2018-09-04T06:06:34.689Z,1012.63
2018-09-04T06:07:34.676Z,1012.60
2018-09-04T06:08:34.676Z,1012.63
2018-09-04T06:09:34.675Z,1012.59
2018-09-04T06:10:34.681Z,1012.61
2018-09-04T06:11:34.677Z,1012.59
2018-09-04T06:12:34.677Z,1012.59
2018-09-04T06:13:34.701Z,1012.63
2018-09-04T06:14:34.682Z,1012.64
2018-09-04T06:15:34.679Z,1012.65
2018-09-04T06:16:34.680Z,1012.64
2018-09-04T06:17:34.677Z,1012.65
2018-09-04T06:18:34.684Z,1012.64
2018-09-04T06:19:34.684Z,1012.66
2018-09-04T06:20:34.685Z,1012.65
2018-09-04T06:21:34.682Z,1012.66
2018-09-04T06:22:34.682Z,1012.67
2018-09-04T06:23:34.691Z,1012.66
2018-09-04T06:24:34.690Z,1012.65
2018-09-04T06:25:34.695Z,1012.63
2018-09-04T06:26:34.694Z,1012.66
2018-09-04T06:27:34.696Z,1012.65
2018-09-04T06:28:34.699Z,1012.67
2018-09-04T06:29:34.755Z,1012.59
2018-09-04T06:30:34.701Z,1012.63
2018-09-04T06:31:34.705Z,1012.63
2018-09-04T06:32:34.703Z,1012.64
2018-09-04T06:33:34.785Z,1012.64
2018-09-04T06:34:34.720Z,1012.63
2018-09-04T06:35:34.727Z,1012.66
2018-09-04T06:36:34.780Z,1012.70
2018-09-04T06:37:34.714Z,1012.69
2018-09-04T06:38:34.714Z,1012.70
2018-09-04T06:39:34.720Z,1012.70
2018-09-04T06:40:34.721Z,1012.73
2018-09-04T06:41:34.721Z,1012.71
2018-09-04T06:42:34.728Z,1012.73
2018-09-04T06:43:34.753Z,1012.77
2018-09-04T06:44:34.732Z,1012.74
2018-09-04T06:45:34.741Z,1012.72
2018-09-04T06:46:34.862Z,1012.78
2018-09-04T06:47:34.738Z,1012.77
2018-09-04T06:48:34.742Z,1012.79
2018-09-04T06:49:34.747Z,1012.82
2018-09-04T06:50:34.749Z,1012.85
2018-09-04T06:51:34.750Z,1012.84
2018-09-04T06:52:34.752Z,1012.87
2018-09-04T06:53:34.759Z,1012.88
2018-09-04T06:54:34.822Z,1012.89
2018-09-04T06:55:34.762Z,1012.86
2018-09-04T06:56:34.762Z,1012.83
2018-09-04T06:57:34.774Z,1012.83
2018-09-04T06:58:34.776Z,1012.85
2018-09-04T06:59:34.772Z,1012.83
2018-09-04T07:00:34.776Z,1012.84
2018-09-04T07:01:34.778Z,1012.86
2018-09-04T07:02:34.780Z,1012.82
2018-09-04T07:03:34.784Z,1012.82
2018-09-04T07:04:34.793Z,1012.87
2018-09-04T07:05:34.790Z,1012.86
2018-09-04T07:06:34.797Z,1012.84
2018-09-04T07:07:34.798Z,1012.85
2018-09-04T07:08:34.802Z,1012.87
2018-09-04T07:09:34.807Z,1012.85
2018-09-04T07:10:34.804Z,1012.88
2018-09-04T07:11:34.812Z,1012.86
2018-09-04T07:12:34.816Z,1012.89
2018-09-04T07:13:34.820Z,1012.91
2018-09-04T07:14:34.824Z,1012.92
2018-09-04T07:15:34.826Z,1012.91
2018-09-04T07:16:34.831Z,1012.93
2018-09-04T07:17:34.835Z,1012.95
2018-09-04T07:18:34.839Z,1012.92
2018-09-04T07:19:34.843Z,1012.95
2018-09-04T07:20:34.848Z,1012.95
2018-09-04T07:21:34.851Z,1012.95
2018-09-04T07:22:34.857Z,1012.90
2018-09-04T07:23:34.861Z,1012.95
2018-09-04T07:24:34.866Z,1012.92
2018-09-04T07:25:34.865Z,1012.88
2018-09-04T07:26:34.871Z,1012.87
2018-09-04T07:27:34.876Z,1012.85
2018-09-04T07:28:34.884Z,1012.82
2018-09-04T07:29:34.887Z,1012.83
2018-09-04T07:30:34.897Z,1012.83
2018-09-04T07:31:34.911Z,1012.82
2018-09-04T07:32:34.899Z,1012.83
2018-09-04T07:33:34.906Z,1012.81
2018-09-04T07:34:34.911Z,1012.83
2018-09-04T07:35:34.914Z,1012.81
2018-09-04T07:36:35.082Z,1012.83
2018-09-04T07:37:34.927Z,1012.88
2018-09-04T07:38:34.918Z,1012.83
2018-09-04T07:39:34.927Z,1012.82
2018-09-04T07:40:34.935Z,1012.77
2018-09-04T07:41:34.952Z,1012.79
2018-09-04T07:42:34.934Z,1012.75
2018-09-04T07:43:34.935Z,1012.82
2018-09-04T07:44:34.943Z,1012.81
2018-09-04T07:45:34.947Z,1012.85
2018-09-04T07:46:34.946Z,1012.86
2018-09-04T07:47:34.951Z,1012.86
2018-09-04T07:48:34.956Z,1012.87
2018-09-04T07:49:34.962Z,1012.85
2018-09-04T07:50:34.963Z,1012.81
2018-09-04T07:51:34.962Z,1012.81
2018-09-04T07:52:34.964Z,1012.80
2018-09-04T07:53:34.973Z,1012.79
2018-09-04T07:54:34.969Z,1012.78
2018-09-04T07:55:34.973Z,1012.77
2018-09-04T07:56:34.979Z,1012.79
2018-09-04T07:57:34.979Z,1012.84
2018-09-04T07:58:34.984Z,1012.83
2018-09-04T07:59:34.983Z,1012.80
2018-09-04T08:00:34.984Z,1012.80
2018-09-04T08:01:34.986Z,1012.77
2018-09-04T08:02:34.992Z,1012.78
2018-09-04T08:03:35.003Z,1012.77
2018-09-04T08:04:34.992Z,1012.75
2018-09-04T08:05:34.992Z,1012.73
2018-09-04T08:06:34.997Z,1012.78
2018-09-04T08:07:35.003Z,1012.76
2018-09-04T08:08:35.004Z,1012.71
2018-09-04T08:09:35.006Z,1012.73
2018-09-04T08:10:35.008Z,1012.74
2018-09-04T08:11:35.006Z,1012.76
2018-09-04T08:12:35.007Z,1012.75
2018-09-04T08:13:35.008Z,1012.77
2018-09-04T08:14:35.013Z,1012.75
2018-09-04T08:15:35.013Z,1012.73
2018-09-04T08:16:35.016Z,1012.69
2018-09-04T08:17:35.017Z,1012.71
2018-09-04T08:18:35.018Z,1012.70
2018-09-04T08:19:35.023Z,1012.71
2018-09-04T08:20:35.113Z,1012.68
2018-09-04T08:21:35.032Z,1012.68
2018-09-04T08:22:35.028Z,1012.71
2018-09-04T08:23:35.031Z,1012.69
2018-09-04T08:24:35.027Z,1012.69
2018-09-04T08:25:35.024Z,1012.70
2018-09-04T08:26:35.028Z,1012.70
2018-09-04T08:27:35.033Z,1012.66
2018-09-04T08:28:35.036Z,1012.68
2018-09-04T08:29:35.036Z,1012.67
2018-09-04T08:30:35.040Z,1012.70
2018-09-04T08:31:35.042Z,1012.71
2018-09-04T08:32:35.043Z,1012.66
2018-09-04T08:33:35.046Z,1012.66
2018-09-04T08:34:35.045Z,1012.64
2018-09-04T08:35:35.049Z,1012.62
2018-09-04T08:36:35.050Z,1012.67
2018-09-04T08:37:35.049Z,1012.63
2018-09-04T08:38:35.056Z,1012.61
2018-09-04T08:39:35.053Z,1012.63
2018-09-04T08:40:35.057Z,1012.61
2018-09-04T08:41:35.056Z,1012.63
2018-09-04T08:42:35.061Z,1012.62
2018-09-04T08:43:35.064Z,1012.62
2018-09-04T08:44:35.065Z,1012.57
2018-09-04T08:45:35.066Z,1012.62
2018-09-04T08:46:35.066Z,1012.58
2018-09-04T08:47:35.068Z,1012.57
2018-09-04T08:48:35.071Z,1012.56
2018-09-04T08:49:35.072Z,1012.56
2018-09-04T08:50:35.096Z,1012.58
2018-09-04T08:51:35.072Z,1012.56
2018-09-04T08:52:35.079Z,1012.54
2018-09-04T08:53:35.155Z,1012.56
2018-09-04T08:54:35.084Z,1012.54
2018-09-04T08:55:35.082Z,1012.50
2018-09-04T08:56:35.086Z,1012.51
2018-09-04T08:57:35.088Z,1012.49
2018-09-04T08:58:35.150Z,1012.54
2018-09-04T08:59:35.090Z,1012.48
2018-09-04T09:00:35.094Z,1012.52
2018-09-04T09:01:35.098Z,1012.48
2018-09-04T09:02:35.097Z,1012.50
2018-09-04T09:03:35.105Z,1012.47
2018-09-04T09:04:35.102Z,1012.50
2018-09-04T09:05:35.189Z,1012.51
2018-09-04T09:06:35.111Z,1012.53
2018-09-04T09:07:35.108Z,1012.45
2018-09-04T09:08:35.110Z,1012.42
2018-09-04T09:09:35.111Z,1012.43
2018-09-04T09:10:35.113Z,1012.45
2018-09-04T09:11:35.119Z,1012.44
2018-09-04T09:12:35.118Z,1012.44
2018-09-04T09:13:35.120Z,1012.45
2018-09-04T09:14:35.119Z,1012.43
2018-09-04T09:15:35.121Z,1012.41
2018-09-04T09:16:35.127Z,1012.39
2018-09-04T09:17:35.128Z,1012.45
2018-09-04T09:18:35.133Z,1012.35
2018-09-04T09:19:35.133Z,1012.35
2018-09-04T09:20:35.135Z,1012.36
2018-09-04T09:21:35.139Z,1012.34
2018-09-04T09:22:35.139Z,1012.34
2018-09-04T09:23:35.145Z,1012.39
2018-09-04T09:24:35.145Z,1012.31
2018-09-04T09:25:35.148Z,1012.30
2018-09-04T09:26:35.149Z,1012.31
2018-09-04T09:27:35.156Z,1012.33
2018-09-04T09:28:35.166Z,1012.35
2018-09-04T09:29:35.417Z,1012.32
2018-09-04T09:30:35.156Z,1012.29
2018-09-04T09:31:35.158Z,1012.28
2018-09-04T09:32:35.163Z,1012.31
2018-09-04T09:33:35.164Z,1012.24
2018-09-04T09:34:35.167Z,1012.24
2018-09-04T09:35:35.172Z,1012.24
2018-09-04T09:36:35.241Z,1012.21
2018-09-04T09:37:35.173Z,1012.23
2018-09-04T09:38:35.173Z,1012.21
2018-09-04T09:39:35.187Z,1012.18
2018-09-04T09:40:35.183Z,1012.20
2018-09-04T09:41:35.186Z,1012.21
2018-09-04T09:42:35.188Z,1012.21
2018-09-04T09:43:35.190Z,1012.19
2018-09-04T09:44:35.196Z,1012.20
2018-09-04T09:45:35.197Z,1012.21
2018-09-04T09:46:35.198Z,1012.22
2018-09-04T09:47:35.201Z,1012.20
2018-09-04T09:48:35.206Z,1012.21
2018-09-04T09:49:35.208Z,1012.17
2018-09-04T09:50:35.239Z,1012.18
2018-09-04T09:51:35.211Z,1012.20
2018-09-04T09:52:35.397Z,1012.20
2018-09-04T09:53:35.436Z,1012.15
2018-09-04T09:54:35.217Z,1012.18
2018-09-04T09:55:35.220Z,1012.16
2018-09-04T09:56:35.228Z,1012.13
2018-09-04T09:57:35.249Z,1012.18
2018-09-04T09:58:35.230Z,1012.16
2018-09-04T09:59:35.255Z,1012.15
2018-09-04T10:00:35.234Z,1012.11
2018-09-04T10:01:35.247Z,1012.13
2018-09-04T10:02:35.239Z,1012.11
2018-09-04T10:03:35.240Z,1012.14
2018-09-04T10:04:35.243Z,1012.14
2018-09-04T10:05:35.245Z,1012.10
2018-09-04T10:06:35.250Z,1012.12
2018-09-04T10:07:35.332Z,1012.14
2018-09-04T10:08:35.257Z,1012.13
2018-09-04T10:09:35.259Z,1012.11
2018-09-04T10:10:35.303Z,1012.11
2018-09-04T10:11:35.266Z,1012.07
2018-09-04T10:12:35.270Z,1012.10
2018-09-04T10:13:35.269Z,1012.07
2018-09-04T10:14:35.273Z,1012.05
2018-09-04T10:15:35.276Z,1012.05
2018-09-04T10:16:35.278Z,1012.08
2018-09-04T10:17:35.281Z,1012.15
2018-09-04T10:18:35.288Z,1012.13
2018-09-04T10:19:35.289Z,1012.07
2018-09-04T10:20:35.290Z,1012.11
2018-09-04T10:21:35.291Z,1012.16
2018-09-04T10:22:35.296Z,1012.14
2018-09-04T10:23:35.299Z,1012.15
2018-09-04T10:24:35.301Z,1012.11
2018-09-04T10:25:35.304Z,1012.16
2018-09-04T10:26:35.345Z,1012.11
2018-09-04T10:27:35.311Z,1012.13
2018-09-04T10:28:35.311Z,1012.13
2018-09-04T10:29:35.321Z,1012.17
2018-09-04T10:30:35.317Z,1012.13
2018-09-04T10:31:35.322Z,1012.15
2018-09-04T10:32:35.325Z,1012.18
2018-09-04T10:33:35.326Z,1012.15
2018-09-04T10:34:35.331Z,1012.14
2018-09-04T10:35:35.352Z,1012.12
2018-09-04T10:36:35.337Z,1012.10
2018-09-04T10:37:35.340Z,1012.14
2018-09-04T10:38:35.342Z,1012.12
2018-09-04T10:39:35.346Z,1012.05
2018-09-04T10:40:35.430Z,1012.12
2018-09-04T10:41:35.352Z,1012.11
2018-09-04T10:42:35.357Z,1012.12
2018-09-04T10:43:35.361Z,1012.10
2018-09-04T10:44:35.365Z,1012.10
2018-09-04T10:45:35.364Z,1012.08
2018-09-04T10:46:35.371Z,1012.10
2018-09-04T10:47:35.377Z,1012.10
2018-09-04T10:48:35.373Z,1012.09
2018-09-04T10:49:35.378Z,1012.10
2018-09-04T10:50:35.784Z,1012.05
2018-09-04T10:51:35.388Z,1012.06
2018-09-04T10:52:35.388Z,1012.10
2018-09-04T10:53:35.388Z,1012.05
2018-09-04T10:54:35.393Z,1012.06
2018-09-04T10:55:35.414Z,1012.08
2018-09-04T10:56:35.400Z,1012.08
2018-09-04T10:57:35.479Z,1012.07
2018-09-04T10:58:35.407Z,1012.06
2018-09-04T10:59:35.407Z,1012.11
2018-09-04T11:00:35.413Z,1012.08
2018-09-04T11:01:35.418Z,1012.07
2018-09-04T11:02:35.418Z,1012.05
2018-09-04T11:03:35.424Z,1012.01
2018-09-04T11:04:35.500Z,1012.04
2018-09-04T11:05:35.430Z,1012.00
2018-09-04T11:06:35.433Z,1012.02
2018-09-04T11:07:35.439Z,1011.99
2018-09-04T11:08:35.442Z,1011.91
2018-09-04T11:09:35.515Z,1012.00
2018-09-04T11:10:35.448Z,1011.96
2018-09-04T11:11:35.452Z,1011.96
2018-09-04T11:12:35.455Z,1011.97
2018-09-04T11:13:35.459Z,1011.95
2018-09-04T11:14:35.465Z,1011.91
2018-09-04T11:15:35.471Z,1011.92
2018-09-04T11:16:35.471Z,1011.89
2018-09-04T11:17:35.478Z,1011.93
2018-09-04T11:18:35.484Z,1011.91
2018-09-04T11:19:35.476Z,1011.89
2018-09-04T11:20:35.487Z,1011.90
2018-09-04T11:21:35.483Z,1011.89
2018-09-04T11:22:35.489Z,1011.89
2018-09-04T11:23:35.509Z,1011.87
2018-09-04T11:24:35.500Z,1011.88
2018-09-04T11:25:35.507Z,1011.89
2018-09-04T11:26:35.509Z,1011.87
2018-09-04T11:27:35.515Z,1011.81
2018-09-04T11:28:35.519Z,1011.73
2018-09-04T11:29:35.522Z,1011.79
2018-09-04T11:30:35.584Z,1011.78
2018-09-04T11:31:35.524Z,1011.75
2018-09-04T11:32:35.534Z,1011.76
2018-09-04T11:33:35.534Z,1011.73
2018-09-04T11:34:35.541Z,1011.77
2018-09-04T11:35:35.545Z,1011.73
2018-09-04T11:36:35.571Z,1011.74
2018-09-04T11:37:35.559Z,1011.83
2018-09-04T11:38:35.560Z,1011.83
2018-09-04T11:39:35.709Z,1011.86
2018-09-04T11:40:35.652Z,1011.85
2018-09-04T11:41:35.569Z,1011.87
2018-09-04T11:42:35.575Z,1011.83
2018-09-04T11:43:35.573Z,1011.83
2018-09-04T11:44:35.581Z,1011.85
2018-09-04T11:45:35.584Z,1011.82
2018-09-04T11:46:35.953Z,1011.86
2018-09-04T11:47:35.594Z,1011.86
2018-09-04T11:48:35.594Z,1011.86
2018-09-04T11:49:35.598Z,1011.86
2018-09-04T11:50:35.601Z,1011.79
2018-09-04T11:51:35.604Z,1011.80
2018-09-04T11:52:35.613Z,1011.79
2018-09-04T11:53:35.615Z,1011.79
2018-09-04T11:54:35.626Z,1011.81
2018-09-04T11:55:35.960Z,1011.85
2018-09-04T11:56:35.623Z,1011.83
2018-09-04T11:57:35.629Z,1011.86
2018-09-04T11:58:35.638Z,1011.87
2018-09-04T11:59:35.646Z,1011.83
2018-09-04T12:00:35.640Z,1011.82
2018-09-04T12:01:35.644Z,1011.83
2018-09-04T12:02:35.648Z,1011.85
2018-09-04T12:03:35.648Z,1011.90
2018-09-04T12:04:35.652Z,1011.85
2018-09-04T12:05:35.722Z,1011.88